sensor_id;sensor_type;location;lat;lon;timestamp;P1;durP1;ratioP1;P2;durP2;ratioP2
10399;SDS011;10031;51.180;17.168;2022-11-20T00:01:29;64.87;;;28.87;;
10399;SDS011;10031;51.180;17.168;2022-11-20T00:04:00;81.60;;;33.13;;
10399;SDS011;10031;51.180;17.168;2022-11-20T00:06:26;72.83;;;30.23;;
10399;SDS011;10031;51.180;17.168;2022-11-20T00:08:54;69.40;;;29.57;;
10399;SDS011;10031;51.180;17.168;2022-11-20T00:11:22;66.40;;;26.70;;
10399;SDS011;10031;51.180;17.168;2022-11-20T00:13:51;74.27;;;30.23;;
10399;SDS011;10031;51.180;17.168;2022-11-20T00:16:22;74.77;;;33.30;;
10399;SDS011;10031;51.180;17.168;2022-11-20T00:18:53;97.27;;;36.60;;
10399;SDS011;10031;51.180;17.168;2022-11-20T00:21:21;114.10;;;40.63;;
10399;SDS011;10031;51.180;17.168;2022-11-20T00:23:50;95.90;;;38.80;;
10399;SDS011;10031;51.180;17.168;2022-11-20T00:26:21;106.63;;;38.67;;
10399;SDS011;10031;51.180;17.168;2022-11-20T00:28:52;104.00;;;40.10;;
10399;SDS011;10031;51.180;17.168;2022-11-20T00:31:22;113.67;;;38.30;;
10399;SDS011;10031;51.180;17.168;2022-11-20T00:33:48;113.80;;;41.57;;
10399;SDS011;10031;51.180;17.168;2022-11-20T00:36:17;114.50;;;42.77;;
10399;SDS011;10031;51.180;17.168;2022-11-20T00:38:52;109.90;;;43.57;;
10399;SDS011;10031;51.180;17.168;2022-11-20T00:41:19;125.30;;;47.03;;
10399;SDS011;10031;51.180;17.168;2022-11-20T00:43:46;126.37;;;46.03;;
10399;SDS011;10031;51.180;17.168;2022-11-20T00:46:12;120.10;;;43.87;;
10399;SDS011;10031;51.180;17.168;2022-11-20T00:48:43;128.67;;;45.30;;
10399;SDS011;10031;51.180;17.168;2022-11-20T00:51:13;130.07;;;47.97;;
10399;SDS011;10031;51.180;17.168;2022-11-20T00:53:44;132.83;;;48.53;;
10399;SDS011;10031;51.180;17.168;2022-11-20T00:56:11;119.27;;;45.00;;
10399;SDS011;10031;51.180;17.168;2022-11-20T00:58:48;110.57;;;40.10;;
10399;SDS011;10031;51.180;17.168;2022-11-20T01:01:20;120.57;;;41.07;;
10399;SDS011;10031;51.180;17.168;2022-11-20T01:03:49;122.77;;;42.73;;
10399;SDS011;10031;51.180;17.168;2022-11-20T01:06:21;152.80;;;48.60;;
10399;SDS011;10031;51.180;17.168;2022-11-20T01:08:59;135.03;;;48.63;;
10399;SDS011;10031;51.180;17.168;2022-11-20T01:11:32;138.60;;;50.03;;
10399;SDS011;10031;51.180;17.168;2022-11-20T01:14:00;129.63;;;48.47;;
10399;SDS011;10031;51.180;17.168;2022-11-20T01:16:28;124.67;;;46.20;;
10399;SDS011;10031;51.180;17.168;2022-11-20T01:18:57;139.07;;;49.63;;
10399;SDS011;10031;51.180;17.168;2022-11-20T01:21:33;140.43;;;50.73;;
10399;SDS011;10031;51.180;17.168;2022-11-20T01:24:01;124.10;;;48.50;;
10399;SDS011;10031;51.180;17.168;2022-11-20T01:26:29;111.43;;;42.57;;
10399;SDS011;10031;51.180;17.168;2022-11-20T01:29:02;101.47;;;39.70;;
10399;SDS011;10031;51.180;17.168;2022-11-20T01:31:37;96.37;;;38.47;;
10399;SDS011;10031;51.180;17.168;2022-11-20T01:34:04;102.77;;;40.67;;
10399;SDS011;10031;51.180;17.168;2022-11-20T01:36:35;103.03;;;39.03;;
10399;SDS011;10031;51.180;17.168;2022-11-20T01:39:07;101.83;;;39.77;;
10399;SDS011;10031;51.180;17.168;2022-11-20T01:41:39;93.40;;;38.37;;
10399;SDS011;10031;51.180;17.168;2022-11-20T01:49:50;101.87;;;38.87;;
10399;SDS011;10031;51.180;17.168;2022-11-20T01:52:34;103.73;;;40.13;;
10399;SDS011;10031;51.180;17.168;2022-11-20T01:55:13;99.20;;;41.33;;
10399;SDS011;10031;51.180;17.168;2022-11-20T01:57:44;106.33;;;42.17;;
10399;SDS011;10031;51.180;17.168;2022-11-20T02:00:14;95.93;;;39.80;;
10399;SDS011;10031;51.180;17.168;2022-11-20T02:02:51;84.57;;;35.03;;
10399;SDS011;10031;51.180;17.168;2022-11-20T02:05:42;85.10;;;34.43;;
10399;SDS011;10031;51.180;17.168;2022-11-20T02:08:15;86.60;;;35.57;;
10399;SDS011;10031;51.180;17.168;2022-11-20T02:10:41;91.47;;;35.00;;
10399;SDS011;10031;51.180;17.168;2022-11-20T02:13:07;90.53;;;36.23;;
10399;SDS011;10031;51.180;17.168;2022-11-20T02:15:52;98.43;;;37.63;;
10399;SDS011;10031;51.180;17.168;2022-11-20T02:18:19;84.43;;;35.20;;
10399;SDS011;10031;51.180;17.168;2022-11-20T02:20:46;86.63;;;36.50;;
10399;SDS011;10031;51.180;17.168;2022-11-20T02:25:58;84.70;;;35.03;;
10399;SDS011;10031;51.180;17.168;2022-11-20T02:28:29;75.07;;;33.63;;
10399;SDS011;10031;51.180;17.168;2022-11-20T02:30:56;85.40;;;35.43;;
10399;SDS011;10031;51.180;17.168;2022-11-20T02:33:21;81.53;;;33.63;;
10399;SDS011;10031;51.180;17.168;2022-11-20T02:35:47;83.63;;;34.13;;
10399;SDS011;10031;51.180;17.168;2022-11-20T02:38:13;75.60;;;32.60;;
10399;SDS011;10031;51.180;17.168;2022-11-20T02:40:41;76.50;;;31.70;;
10399;SDS011;10031;51.180;17.168;2022-11-20T02:43:07;65.70;;;30.10;;
10399;SDS011;10031;51.180;17.168;2022-11-20T02:45:33;71.77;;;30.90;;
10399;SDS011;10031;51.180;17.168;2022-11-20T02:47:59;70.93;;;31.67;;
10399;SDS011;10031;51.180;17.168;2022-11-20T02:50:26;68.43;;;29.27;;
10399;SDS011;10031;51.180;17.168;2022-11-20T02:52:52;78.10;;;29.70;;
10399;SDS011;10031;51.180;17.168;2022-11-20T02:55:18;73.13;;;31.97;;
10399;SDS011;10031;51.180;17.168;2022-11-20T02:57:45;64.03;;;29.20;;
10399;SDS011;10031;51.180;17.168;2022-11-20T03:00:11;64.60;;;29.00;;
10399;SDS011;10031;51.180;17.168;2022-11-20T03:02:37;68.60;;;29.87;;
10399;SDS011;10031;51.180;17.168;2022-11-20T03:05:03;67.07;;;28.33;;
10399;SDS011;10031;51.180;17.168;2022-11-20T03:07:29;68.80;;;27.27;;
10399;SDS011;10031;51.180;17.168;2022-11-20T03:09:55;61.63;;;26.47;;
10399;SDS011;10031;51.180;17.168;2022-11-20T03:12:21;62.63;;;27.73;;
10399;SDS011;10031;51.180;17.168;2022-11-20T03:14:47;65.53;;;26.67;;
10399;SDS011;10031;51.180;17.168;2022-11-20T03:17:14;59.20;;;26.23;;
10399;SDS011;10031;51.180;17.168;2022-11-20T03:19:42;58.50;;;26.47;;
10399;SDS011;10031;51.180;17.168;2022-11-20T03:22:08;63.10;;;25.57;;
10399;SDS011;10031;51.180;17.168;2022-11-20T03:24:34;59.00;;;25.40;;
10399;SDS011;10031;51.180;17.168;2022-11-20T03:27:00;61.57;;;25.60;;
10399;SDS011;10031;51.180;17.168;2022-11-20T03:29:28;55.23;;;25.10;;
10399;SDS011;10031;51.180;17.168;2022-11-20T03:31:53;57.67;;;23.83;;
10399;SDS011;10031;51.180;17.168;2022-11-20T03:34:19;62.77;;;25.00;;
10399;SDS011;10031;51.180;17.168;2022-11-20T03:36:45;53.73;;;23.73;;
10399;SDS011;10031;51.180;17.168;2022-11-20T03:39:11;53.90;;;24.63;;
10399;SDS011;10031;51.180;17.168;2022-11-20T03:41:39;53.17;;;24.73;;
10399;SDS011;10031;51.180;17.168;2022-11-20T03:44:07;65.13;;;26.60;;
10399;SDS011;10031;51.180;17.168;2022-11-20T03:46:35;58.03;;;24.80;;
10399;SDS011;10031;51.180;17.168;2022-11-20T03:49:03;55.80;;;24.00;;
10399;SDS011;10031;51.180;17.168;2022-11-20T03:51:32;60.47;;;24.47;;
10399;SDS011;10031;51.180;17.168;2022-11-20T03:54:00;61.87;;;24.27;;
10399;SDS011;10031;51.180;17.168;2022-11-20T03:56:31;65.83;;;26.50;;
10399;SDS011;10031;51.180;17.168;2022-11-20T03:59:00;50.53;;;22.93;;
10399;SDS011;10031;51.180;17.168;2022-11-20T04:01:29;62.40;;;26.20;;
10399;SDS011;10031;51.180;17.168;2022-11-20T04:03:59;63.53;;;24.47;;
10399;SDS011;10031;51.180;17.168;2022-11-20T04:06:27;59.53;;;25.13;;
10399;SDS011;10031;51.180;17.168;2022-11-20T04:08:57;64.00;;;25.03;;
10399;SDS011;10031;51.180;17.168;2022-11-20T04:11:24;59.47;;;24.70;;
10399;SDS011;10031;51.180;17.168;2022-11-20T04:13:53;63.57;;;24.57;;
10399;SDS011;10031;51.180;17.168;2022-11-20T04:16:22;66.83;;;27.37;;
10399;SDS011;10031;51.180;17.168;2022-11-20T04:18:54;58.80;;;24.57;;
10399;SDS011;10031;51.180;17.168;2022-11-20T04:21:21;61.13;;;25.37;;
10399;SDS011;10031;51.180;17.168;2022-11-20T04:23:46;57.73;;;23.33;;
10399;SDS011;10031;51.180;17.168;2022-11-20T04:26:13;53.13;;;24.10;;
10399;SDS011;10031;51.180;17.168;2022-11-20T04:28:40;64.43;;;25.20;;
10399;SDS011;10031;51.180;17.168;2022-11-20T04:31:10;63.07;;;26.47;;
10399;SDS011;10031;51.180;17.168;2022-11-20T04:33:38;62.67;;;25.33;;
10399;SDS011;10031;51.180;17.168;2022-11-20T04:36:12;58.17;;;24.67;;
10399;SDS011;10031;51.180;17.168;2022-11-20T04:38:43;55.07;;;24.30;;
10399;SDS011;10031;51.180;17.168;2022-11-20T04:41:14;55.27;;;24.90;;
10399;SDS011;10031;51.180;17.168;2022-11-20T04:43:40;66.13;;;24.57;;
10399;SDS011;10031;51.180;17.168;2022-11-20T04:46:06;54.07;;;24.47;;
10399;SDS011;10031;51.180;17.168;2022-11-20T04:48:32;65.57;;;26.67;;
10399;SDS011;10031;51.180;17.168;2022-11-20T04:51:03;64.60;;;26.40;;
10399;SDS011;10031;51.180;17.168;2022-11-20T04:53:29;60.37;;;26.17;;
10399;SDS011;10031;51.180;17.168;2022-11-20T04:56:00;71.03;;;27.77;;
10399;SDS011;10031;51.180;17.168;2022-11-20T04:58:28;63.03;;;26.70;;
10399;SDS011;10031;51.180;17.168;2022-11-20T05:01:00;70.10;;;28.57;;
10399;SDS011;10031;51.180;17.168;2022-11-20T05:03:30;62.43;;;24.70;;
10399;SDS011;10031;51.180;17.168;2022-11-20T05:06:01;67.53;;;27.20;;
10399;SDS011;10031;51.180;17.168;2022-11-20T05:08:28;57.83;;;25.33;;
10399;SDS011;10031;51.180;17.168;2022-11-20T05:10:59;57.83;;;24.67;;
10399;SDS011;10031;51.180;17.168;2022-11-20T05:13:30;59.70;;;24.90;;
10399;SDS011;10031;51.180;17.168;2022-11-20T05:16:00;64.47;;;27.50;;
10399;SDS011;10031;51.180;17.168;2022-11-20T05:18:27;63.30;;;24.90;;
10399;SDS011;10031;51.180;17.168;2022-11-20T05:20:57;57.83;;;23.73;;
10399;SDS011;10031;51.180;17.168;2022-11-20T05:23:25;58.97;;;23.43;;
10399;SDS011;10031;51.180;17.168;2022-11-20T05:25:52;59.73;;;24.90;;
10399;SDS011;10031;51.180;17.168;2022-11-20T05:28:19;54.13;;;25.20;;
10399;SDS011;10031;51.180;17.168;2022-11-20T05:30:45;60.23;;;26.20;;
10399;SDS011;10031;51.180;17.168;2022-11-20T05:33:15;55.37;;;23.07;;
10399;SDS011;10031;51.180;17.168;2022-11-20T05:35:45;64.30;;;25.30;;
10399;SDS011;10031;51.180;17.168;2022-11-20T05:38:11;66.97;;;25.70;;
10399;SDS011;10031;51.180;17.168;2022-11-20T05:40:37;58.07;;;23.27;;
10399;SDS011;10031;51.180;17.168;2022-11-20T05:43:03;56.97;;;23.40;;
10399;SDS011;10031;51.180;17.168;2022-11-20T05:45:29;63.53;;;24.37;;
10399;SDS011;10031;51.180;17.168;2022-11-20T05:47:58;63.50;;;26.87;;
10399;SDS011;10031;51.180;17.168;2022-11-20T05:50:27;60.47;;;24.80;;
10399;SDS011;10031;51.180;17.168;2022-11-20T05:52:53;55.63;;;21.43;;
10399;SDS011;10031;51.180;17.168;2022-11-20T05:55:19;65.63;;;23.33;;
10399;SDS011;10031;51.180;17.168;2022-11-20T05:57:45;54.30;;;23.60;;
10399;SDS011;10031;51.180;17.168;2022-11-20T06:00:11;60.07;;;24.40;;
10399;SDS011;10031;51.180;17.168;2022-11-20T06:02:37;57.83;;;24.60;;
10399;SDS011;10031;51.180;17.168;2022-11-20T06:05:03;68.87;;;25.80;;
10399;SDS011;10031;51.180;17.168;2022-11-20T06:07:29;62.53;;;24.27;;
10399;SDS011;10031;51.180;17.168;2022-11-20T06:09:55;60.10;;;25.07;;
10399;SDS011;10031;51.180;17.168;2022-11-20T06:12:21;59.77;;;24.57;;
10399;SDS011;10031;51.180;17.168;2022-11-20T06:14:47;60.30;;;23.77;;
10399;SDS011;10031;51.180;17.168;2022-11-20T06:17:13;60.33;;;24.60;;
10399;SDS011;10031;51.180;17.168;2022-11-20T06:19:44;56.43;;;24.17;;
10399;SDS011;10031;51.180;17.168;2022-11-20T06:22:10;61.83;;;26.80;;
10399;SDS011;10031;51.180;17.168;2022-11-20T06:24:36;67.80;;;26.90;;
10399;SDS011;10031;51.180;17.168;2022-11-20T06:27:02;68.20;;;25.70;;
10399;SDS011;10031;51.180;17.168;2022-11-20T06:29:28;62.80;;;24.27;;
10399;SDS011;10031;51.180;17.168;2022-11-20T06:31:57;71.07;;;26.47;;
10399;SDS011;10031;51.180;17.168;2022-11-20T06:34:27;57.80;;;24.80;;
10399;SDS011;10031;51.180;17.168;2022-11-20T06:36:53;67.13;;;26.33;;
10399;SDS011;10031;51.180;17.168;2022-11-20T06:39:22;60.97;;;25.23;;
10399;SDS011;10031;51.180;17.168;2022-11-20T06:41:48;64.63;;;24.43;;
10399;SDS011;10031;51.180;17.168;2022-11-20T06:44:14;67.53;;;27.47;;
10399;SDS011;10031;51.180;17.168;2022-11-20T06:46:52;64.13;;;25.07;;
10399;SDS011;10031;51.180;17.168;2022-11-20T06:49:18;64.83;;;26.33;;
10399;SDS011;10031;51.180;17.168;2022-11-20T06:51:44;75.90;;;29.13;;
10399;SDS011;10031;51.180;17.168;2022-11-20T06:54:10;66.03;;;28.27;;
10399;SDS011;10031;51.180;17.168;2022-11-20T06:56:36;74.27;;;31.20;;
10399;SDS011;10031;51.180;17.168;2022-11-20T06:59:08;81.47;;;34.23;;
10399;SDS011;10031;51.180;17.168;2022-11-20T07:01:40;79.73;;;34.57;;
10399;SDS011;10031;51.180;17.168;2022-11-20T07:04:09;82.43;;;36.07;;
10399;SDS011;10031;51.180;17.168;2022-11-20T07:06:36;99.73;;;42.30;;
10399;SDS011;10031;51.180;17.168;2022-11-20T07:09:02;108.27;;;45.10;;
10399;SDS011;10031;51.180;17.168;2022-11-20T07:11:37;98.83;;;45.70;;
10399;SDS011;10031;51.180;17.168;2022-11-20T07:14:05;108.53;;;45.97;;
10399;SDS011;10031;51.180;17.168;2022-11-20T07:16:33;92.23;;;40.93;;
10399;SDS011;10031;51.180;17.168;2022-11-20T07:18:59;86.80;;;35.80;;
10399;SDS011;10031;51.180;17.168;2022-11-20T07:21:25;77.10;;;34.43;;
10399;SDS011;10031;51.180;17.168;2022-11-20T07:23:51;87.20;;;35.50;;
10399;SDS011;10031;51.180;17.168;2022-11-20T07:26:17;80.77;;;35.00;;
10399;SDS011;10031;51.180;17.168;2022-11-20T07:28:46;75.13;;;34.17;;
10399;SDS011;10031;51.180;17.168;2022-11-20T07:31:25;72.23;;;32.77;;
10399;SDS011;10031;51.180;17.168;2022-11-20T07:33:51;78.53;;;33.27;;
10399;SDS011;10031;51.180;17.168;2022-11-20T07:36:19;85.17;;;36.30;;
10399;SDS011;10031;51.180;17.168;2022-11-20T07:38:45;86.83;;;35.93;;
10399;SDS011;10031;51.180;17.168;2022-11-20T07:41:12;108.53;;;44.17;;
10399;SDS011;10031;51.180;17.168;2022-11-20T07:43:38;117.47;;;47.40;;
10399;SDS011;10031;51.180;17.168;2022-11-20T07:46:04;95.07;;;43.13;;
10399;SDS011;10031;51.180;17.168;2022-11-20T07:48:35;99.43;;;41.73;;
10399;SDS011;10031;51.180;17.168;2022-11-20T07:51:02;85.43;;;35.50;;
10399;SDS011;10031;51.180;17.168;2022-11-20T07:53:28;70.77;;;33.07;;
10399;SDS011;10031;51.180;17.168;2022-11-20T07:55:54;66.07;;;30.97;;
10399;SDS011;10031;51.180;17.168;2022-11-20T07:58:21;62.67;;;29.20;;
10399;SDS011;10031;51.180;17.168;2022-11-20T08:00:50;50.10;;;21.10;;
10399;SDS011;10031;51.180;17.168;2022-11-20T08:03:17;41.77;;;20.90;;
10399;SDS011;10031;51.180;17.168;2022-11-20T08:05:43;59.03;;;27.67;;
10399;SDS011;10031;51.180;17.168;2022-11-20T08:08:11;65.20;;;27.23;;
10399;SDS011;10031;51.180;17.168;2022-11-20T08:10:36;58.33;;;27.10;;
10399;SDS011;10031;51.180;17.168;2022-11-20T08:13:03;62.90;;;26.83;;
10399;SDS011;10031;51.180;17.168;2022-11-20T08:15:49;58.60;;;27.17;;
10399;SDS011;10031;51.180;17.168;2022-11-20T08:18:16;59.60;;;27.37;;
10399;SDS011;10031;51.180;17.168;2022-11-20T08:20:42;58.13;;;26.03;;
10399;SDS011;10031;51.180;17.168;2022-11-20T08:23:11;59.70;;;27.53;;
10399;SDS011;10031;51.180;17.168;2022-11-20T08:25:55;48.03;;;23.13;;
10399;SDS011;10031;51.180;17.168;2022-11-20T08:28:22;60.70;;;26.40;;
10399;SDS011;10031;51.180;17.168;2022-11-20T08:30:49;56.47;;;23.70;;
10399;SDS011;10031;51.180;17.168;2022-11-20T08:33:28;55.10;;;25.87;;
10399;SDS011;10031;51.180;17.168;2022-11-20T08:35:59;56.80;;;26.27;;
10399;SDS011;10031;51.180;17.168;2022-11-20T08:38:26;52.67;;;24.50;;
10399;SDS011;10031;51.180;17.168;2022-11-20T08:41:00;55.53;;;24.83;;
10399;SDS011;10031;51.180;17.168;2022-11-20T08:43:45;57.20;;;25.80;;
10399;SDS011;10031;51.180;17.168;2022-11-20T08:46:11;58.93;;;26.83;;
10399;SDS011;10031;51.180;17.168;2022-11-20T08:48:37;55.73;;;26.73;;
10399;SDS011;10031;51.180;17.168;2022-11-20T08:51:03;57.73;;;25.93;;
10399;SDS011;10031;51.180;17.168;2022-11-20T08:53:30;54.23;;;24.23;;
10399;SDS011;10031;51.180;17.168;2022-11-20T08:55:56;58.40;;;27.40;;
10399;SDS011;10031;51.180;17.168;2022-11-20T08:58:23;53.43;;;25.40;;
10399;SDS011;10031;51.180;17.168;2022-11-20T09:00:49;60.13;;;27.20;;
10399;SDS011;10031;51.180;17.168;2022-11-20T09:03:15;51.80;;;25.80;;
10399;SDS011;10031;51.180;17.168;2022-11-20T09:05:42;53.43;;;27.53;;
10399;SDS011;10031;51.180;17.168;2022-11-20T09:08:10;61.20;;;27.63;;
10399;SDS011;10031;51.180;17.168;2022-11-20T09:10:36;53.27;;;25.67;;
10399;SDS011;10031;51.180;17.168;2022-11-20T09:13:04;58.27;;;26.70;;
10399;SDS011;10031;51.180;17.168;2022-11-20T09:15:30;56.67;;;24.37;;
10399;SDS011;10031;51.180;17.168;2022-11-20T09:18:02;51.13;;;25.10;;
10399;SDS011;10031;51.180;17.168;2022-11-20T09:20:36;37.57;;;17.60;;
10399;SDS011;10031;51.180;17.168;2022-11-20T09:23:02;48.17;;;23.70;;
10399;SDS011;10031;51.180;17.168;2022-11-20T09:25:28;50.40;;;23.90;;
10399;SDS011;10031;51.180;17.168;2022-11-20T09:28:05;54.63;;;25.03;;
10399;SDS011;10031;51.180;17.168;2022-11-20T09:30:32;45.47;;;23.33;;
10399;SDS011;10031;51.180;17.168;2022-11-20T09:32:58;51.07;;;24.67;;
10399;SDS011;10031;51.180;17.168;2022-11-20T09:35:24;53.10;;;24.33;;
10399;SDS011;10031;51.180;17.168;2022-11-20T09:37:51;46.10;;;22.93;;
10399;SDS011;10031;51.180;17.168;2022-11-20T09:40:19;43.90;;;22.43;;
10399;SDS011;10031;51.180;17.168;2022-11-20T09:45:23;45.80;;;23.47;;
10399;SDS011;10031;51.180;17.168;2022-11-20T09:56:06;51.33;;;22.87;;
10399;SDS011;10031;51.180;17.168;2022-11-20T10:01:12;46.53;;;22.30;;
10399;SDS011;10031;51.180;17.168;2022-11-20T10:06:26;45.43;;;21.53;;
10399;SDS011;10031;51.180;17.168;2022-11-20T10:08:59;41.70;;;21.33;;
10399;SDS011;10031;51.180;17.168;2022-11-20T10:11:33;38.20;;;19.17;;
10399;SDS011;10031;51.180;17.168;2022-11-20T10:14:29;38.37;;;20.30;;
10399;SDS011;10031;51.180;17.168;2022-11-20T10:22:06;37.13;;;19.63;;
10399;SDS011;10031;51.180;17.168;2022-11-20T10:27:58;32.13;;;18.03;;
10399;SDS011;10031;51.180;17.168;2022-11-20T10:30:31;35.30;;;17.53;;
10399;SDS011;10031;51.180;17.168;2022-11-20T10:33:08;29.17;;;14.37;;
10399;SDS011;10031;51.180;17.168;2022-11-20T10:35:41;35.27;;;16.57;;
10399;SDS011;10031;51.180;17.168;2022-11-20T10:38:29;35.70;;;16.73;;
10399;SDS011;10031;51.180;17.168;2022-11-20T10:40:59;33.97;;;16.90;;
10399;SDS011;10031;51.180;17.168;2022-11-20T10:43:46;28.50;;;15.20;;
10399;SDS011;10031;51.180;17.168;2022-11-20T10:46:17;38.53;;;19.90;;
10399;SDS011;10031;51.180;17.168;2022-11-20T10:48:47;39.43;;;19.83;;
10399;SDS011;10031;51.180;17.168;2022-11-20T11:00:26;38.80;;;19.43;;
10399;SDS011;10031;51.180;17.168;2022-11-20T11:02:53;42.73;;;19.00;;
10399;SDS011;10031;51.180;17.168;2022-11-20T11:07:54;29.97;;;12.83;;
10399;SDS011;10031;51.180;17.168;2022-11-20T11:10:22;34.77;;;17.40;;
10399;SDS011;10031;51.180;17.168;2022-11-20T11:12:57;33.10;;;18.33;;
10399;SDS011;10031;51.180;17.168;2022-11-20T11:15:35;33.17;;;16.57;;
10399;SDS011;10031;51.180;17.168;2022-11-20T11:18:10;33.07;;;17.43;;
10399;SDS011;10031;51.180;17.168;2022-11-20T11:20:36;32.93;;;16.23;;
10399;SDS011;10031;51.180;17.168;2022-11-20T11:23:03;34.17;;;17.77;;
10399;SDS011;10031;51.180;17.168;2022-11-20T11:25:30;34.77;;;18.20;;
10399;SDS011;10031;51.180;17.168;2022-11-20T11:28:01;32.00;;;18.03;;
10399;SDS011;10031;51.180;17.168;2022-11-20T11:30:30;34.30;;;17.43;;
10399;SDS011;10031;51.180;17.168;2022-11-20T11:33:09;37.90;;;18.03;;
10399;SDS011;10031;51.180;17.168;2022-11-20T11:35:47;31.97;;;16.03;;
10399;SDS011;10031;51.180;17.168;2022-11-20T11:38:42;33.00;;;17.30;;
10399;SDS011;10031;51.180;17.168;2022-11-20T11:41:12;33.63;;;17.83;;
10399;SDS011;10031;51.180;17.168;2022-11-20T11:43:52;34.20;;;16.97;;
10399;SDS011;10031;51.180;17.168;2022-11-20T11:46:40;33.70;;;17.13;;
10399;SDS011;10031;51.180;17.168;2022-11-20T11:49:18;29.27;;;15.73;;
10399;SDS011;10031;51.180;17.168;2022-11-20T11:57:00;35.63;;;16.90;;
10399;SDS011;10031;51.180;17.168;2022-11-20T12:00:02;31.00;;;16.10;;
10399;SDS011;10031;51.180;17.168;2022-11-20T12:05:20;30.40;;;15.93;;
10399;SDS011;10031;51.180;17.168;2022-11-20T12:14:04;31.57;;;16.87;;
10399;SDS011;10031;51.180;17.168;2022-11-20T12:16:55;28.37;;;15.50;;
10399;SDS011;10031;51.180;17.168;2022-11-20T12:19:22;27.80;;;15.97;;
10399;SDS011;10031;51.180;17.168;2022-11-20T12:22:13;30.53;;;18.23;;
10399;SDS011;10031;51.180;17.168;2022-11-20T12:50:41;31.10;;;16.03;;
10399;SDS011;10031;51.180;17.168;2022-11-20T13:01:58;30.73;;;17.13;;
10399;SDS011;10031;51.180;17.168;2022-11-20T13:07:22;27.10;;;15.00;;
10399;SDS011;10031;51.180;17.168;2022-11-20T13:09:52;25.90;;;14.10;;
10399;SDS011;10031;51.180;17.168;2022-11-20T13:12:25;25.60;;;13.97;;
10399;SDS011;10031;51.180;17.168;2022-11-20T13:17:38;27.97;;;15.20;;
10399;SDS011;10031;51.180;17.168;2022-11-20T13:20:19;28.50;;;14.13;;
10399;SDS011;10031;51.180;17.168;2022-11-20T13:22:46;25.90;;;14.07;;
10399;SDS011;10031;51.180;17.168;2022-11-20T13:27:53;24.63;;;13.27;;
10399;SDS011;10031;51.180;17.168;2022-11-20T13:30:28;24.67;;;14.77;;
10399;SDS011;10031;51.180;17.168;2022-11-20T13:35:31;25.97;;;14.63;;
10399;SDS011;10031;51.180;17.168;2022-11-20T13:38:13;32.87;;;13.63;;
10399;SDS011;10031;51.180;17.168;2022-11-20T13:43:20;26.73;;;15.37;;
10399;SDS011;10031;51.180;17.168;2022-11-20T13:46:02;25.20;;;14.20;;
10399;SDS011;10031;51.180;17.168;2022-11-20T13:48:47;23.47;;;14.37;;
10399;SDS011;10031;51.180;17.168;2022-11-20T13:59:57;21.37;;;12.43;;
10399;SDS011;10031;51.180;17.168;2022-11-20T14:02:36;23.27;;;13.47;;
10399;SDS011;10031;51.180;17.168;2022-11-20T14:05:02;22.83;;;12.60;;
10399;SDS011;10031;51.180;17.168;2022-11-20T14:07:35;21.60;;;12.67;;
10399;SDS011;10031;51.180;17.168;2022-11-20T14:10:18;20.60;;;12.20;;
10399;SDS011;10031;51.180;17.168;2022-11-20T14:12:55;23.00;;;12.73;;
10399;SDS011;10031;51.180;17.168;2022-11-20T14:15:31;22.57;;;13.70;;
10399;SDS011;10031;51.180;17.168;2022-11-20T14:18:11;23.90;;;13.27;;
10399;SDS011;10031;51.180;17.168;2022-11-20T14:20:39;25.10;;;14.07;;
10399;SDS011;10031;51.180;17.168;2022-11-20T14:23:07;27.90;;;15.87;;
10399;SDS011;10031;51.180;17.168;2022-11-20T14:25:35;27.97;;;15.07;;
10399;SDS011;10031;51.180;17.168;2022-11-20T14:28:02;27.57;;;14.07;;
10399;SDS011;10031;51.180;17.168;2022-11-20T14:30:36;28.00;;;14.40;;
10399;SDS011;10031;51.180;17.168;2022-11-20T14:33:09;28.67;;;15.23;;
10399;SDS011;10031;51.180;17.168;2022-11-20T14:35:40;30.40;;;15.13;;
10399;SDS011;10031;51.180;17.168;2022-11-20T14:38:17;27.07;;;13.93;;
10399;SDS011;10031;51.180;17.168;2022-11-20T14:40:45;34.17;;;17.97;;
10399;SDS011;10031;51.180;17.168;2022-11-20T14:45:43;30.37;;;15.57;;
10399;SDS011;10031;51.180;17.168;2022-11-20T14:48:13;32.17;;;16.67;;
10399;SDS011;10031;51.180;17.168;2022-11-20T14:50:40;32.70;;;17.60;;
10399;SDS011;10031;51.180;17.168;2022-11-20T14:53:06;29.50;;;15.67;;
10399;SDS011;10031;51.180;17.168;2022-11-20T14:58:04;30.53;;;15.03;;
10399;SDS011;10031;51.180;17.168;2022-11-20T15:00:54;28.23;;;15.43;;
10399;SDS011;10031;51.180;17.168;2022-11-20T15:03:19;28.67;;;15.40;;
10399;SDS011;10031;51.180;17.168;2022-11-20T15:05:46;31.43;;;14.63;;
10399;SDS011;10031;51.180;17.168;2022-11-20T15:08:14;30.30;;;15.70;;
10399;SDS011;10031;51.180;17.168;2022-11-20T15:10:47;28.30;;;14.53;;
10399;SDS011;10031;51.180;17.168;2022-11-20T15:13:22;29.57;;;15.80;;
10399;SDS011;10031;51.180;17.168;2022-11-20T15:15:56;27.67;;;15.23;;
10399;SDS011;10031;51.180;17.168;2022-11-20T15:18:28;37.33;;;17.57;;
10399;SDS011;10031;51.180;17.168;2022-11-20T15:20:56;37.83;;;17.20;;
10399;SDS011;10031;51.180;17.168;2022-11-20T15:23:23;28.30;;;13.87;;
10399;SDS011;10031;51.180;17.168;2022-11-20T15:25:51;28.70;;;15.17;;
10399;SDS011;10031;51.180;17.168;2022-11-20T15:28:18;29.43;;;15.87;;
10399;SDS011;10031;51.180;17.168;2022-11-20T15:30:59;33.03;;;15.03;;
10399;SDS011;10031;51.180;17.168;2022-11-20T15:33:25;25.90;;;13.83;;
10399;SDS011;10031;51.180;17.168;2022-11-20T15:35:51;24.97;;;12.80;;
10399;SDS011;10031;51.180;17.168;2022-11-20T15:38:17;24.97;;;12.73;;
10399;SDS011;10031;51.180;17.168;2022-11-20T15:40:43;27.77;;;13.80;;
10399;SDS011;10031;51.180;17.168;2022-11-20T15:43:09;28.77;;;13.90;;
10399;SDS011;10031;51.180;17.168;2022-11-20T15:45:44;30.10;;;14.77;;
10399;SDS011;10031;51.180;17.168;2022-11-20T15:48:31;31.90;;;14.00;;
10399;SDS011;10031;51.180;17.168;2022-11-20T15:53:41;28.93;;;14.13;;
10399;SDS011;10031;51.180;17.168;2022-11-20T15:56:12;29.63;;;14.57;;
10399;SDS011;10031;51.180;17.168;2022-11-20T15:58:42;29.13;;;14.70;;
10399;SDS011;10031;51.180;17.168;2022-11-20T16:01:09;26.17;;;12.93;;
10399;SDS011;10031;51.180;17.168;2022-11-20T16:03:37;28.27;;;13.77;;
10399;SDS011;10031;51.180;17.168;2022-11-20T16:06:03;32.43;;;13.27;;
10399;SDS011;10031;51.180;17.168;2022-11-20T16:08:29;28.37;;;13.50;;
10399;SDS011;10031;51.180;17.168;2022-11-20T16:10:59;25.97;;;13.40;;
10399;SDS011;10031;51.180;17.168;2022-11-20T16:13:25;38.60;;;16.87;;
10399;SDS011;10031;51.180;17.168;2022-11-20T16:16:11;31.33;;;15.70;;
10399;SDS011;10031;51.180;17.168;2022-11-20T16:18:48;36.33;;;16.53;;
10399;SDS011;10031;51.180;17.168;2022-11-20T16:21:14;32.83;;;15.67;;
10399;SDS011;10031;51.180;17.168;2022-11-20T16:23:40;26.27;;;13.57;;
10399;SDS011;10031;51.180;17.168;2022-11-20T16:26:14;33.17;;;14.80;;
10399;SDS011;10031;51.180;17.168;2022-11-20T16:28:41;29.70;;;14.30;;